Time;durP1;ratioP1;P1;durP2;ratioP2;P2;SDS_P1;SDS_P2;PMS_P1;PMS_P2;Temp;Humidity;BMP_temperature;BMP_pressure;BME280_temperature;BME280_humidity;BME280_pressure;Samples;Min_cycle;Max_cycle;Signal;HPM_P1;HPM_P2
2022/01/25 00:28:41;;;;;;;47.78;18.65;;;1.70;76.40;;;;;;5154340;27;46388;-63
2022/01/25 00:31:13;;;;;;;43.10;15.77;;;1.80;76.20;;;;;;5151931;27;46418;-63
2022/01/25 00:33:41;;;;;;;40.25;15.52;;;1.80;76.20;;;;;;5158906;27;46412;-62
2022/01/25 00:36:10;;;;;;;49.22;15.20;;;1.80;76.30;;;;;;5158287;27;46503;-62
2022/01/25 00:38:35;;;;;;;54.80;15.15;;;1.80;76.40;;;;;;5153401;27;46461;-63
2022/01/25 00:41:01;;;;;;;59.67;16.00;;;1.80;76.30;;;;;;5150525;27;45843;-62
2022/01/25 00:43:27;;;;;;;43.80;15.63;;;1.70;76.20;;;;;;5149849;27;46288;-64
2022/01/25 00:45:57;;;;;;;61.60;16.90;;;1.70;76.00;;;;;;5156381;27;46352;-64
2022/01/25 00:53:59;;;;;;;44.05;16.58;;;1.80;76.00;;;;;;5155930;27;46341;-63
2022/01/25 00:56:46;;;;;;;47.33;15.02;;;1.80;75.90;;;;;;5151411;27;46348;-62
2022/01/25 00:59:14;;;;;;;49.38;17.98;;;1.80;75.90;;;;;;5162040;27;46453;-63
2022/01/25 01:01:41;;;;;;;53.25;14.95;;;1.70;75.90;;;;;;5156833;27;46432;-64
2022/01/25 01:04:08;;;;;;;127.75;20.15;;;1.70;76.30;;;;;;5153901;27;47101;-64
2022/01/25 01:06:34;;;;;;;85.93;17.85;;;1.60;76.50;;;;;;5155556;27;46426;-63
2022/01/25 01:09:00;;;;;;;46.17;16.40;;;1.60;76.60;;;;;;5154301;27;46440;-63
2022/01/25 01:11:35;;;;;;;58.97;16.13;;;1.70;76.60;;;;;;5150368;27;46415;-65
2022/01/25 01:14:10;;;;;;;62.28;19.92;;;1.60;76.60;;;;;;5149001;27;46416;-64
2022/01/25 01:38:14;;;;;;;45.10;15.02;;;1.30;77.00;;;;;;5148246;27;46603;-62
2022/01/25 01:48:33;;;;;;;62.35;16.55;;;1.60;76.30;;;;;;5160130;27;46367;-62
2022/01/25 01:51:07;;;;;;;53.17;16.08;;;1.50;76.10;;;;;;5147257;27;46412;-61
2022/01/25 01:53:34;;;;;;;63.38;15.77;;;1.50;76.20;;;;;;5151850;27;46414;-64
2022/01/25 01:56:00;;;;;;;54.40;17.33;;;1.50;76.90;;;;;;5150128;27;47312;-64
2022/01/25 01:58:26;;;;;;;42.28;16.77;;;1.60;76.20;;;;;;5149215;27;46612;-63
2022/01/25 02:00:52;;;;;;;31.90;15.30;;;1.50;76.30;;;;;;5153829;27;46316;-62
2022/01/25 02:03:18;;;;;;;55.97;16.60;;;1.60;76.30;;;;;;5155849;27;45878;-64
2022/01/25 02:05:44;;;;;;;59.30;16.15;;;1.50;76.30;;;;;;5156766;27;46411;-63
2022/01/25 02:08:11;;;;;;;46.33;16.37;;;1.60;76.40;;;;;;5157956;27;46475;-63
2022/01/25 02:10:36;;;;;;;62.35;15.70;;;1.60;76.30;;;;;;5155769;27;46323;-62
2022/01/25 02:13:11;;;;;;;58.27;16.57;;;1.60;76.40;;;;;;5161417;27;46480;-63
2022/01/25 02:15:38;;;;;;;53.72;17.58;;;1.50;76.30;;;;;;5154201;27;46471;-62
2022/01/25 02:23:34;;;;;;;54.38;16.27;;;1.60;76.40;;;;;;5153884;27;46608;-62
2022/01/25 02:26:02;;;;;;;50.72;17.52;;;1.60;76.30;;;;;;5153591;27;48106;-64
2022/01/25 02:28:32;;;;;;;39.95;16.13;;;1.60;76.20;;;;;;5157029;27;46293;-64
2022/01/25 02:30:59;;;;;;;57.63;17.95;;;1.60;76.40;;;;;;5154602;27;46452;-63
2022/01/25 02:33:25;;;;;;;56.90;16.40;;;1.60;76.40;;;;;;5150316;27;46389;-63
2022/01/25 02:35:52;;;;;;;44.10;17.17;;;1.60;76.30;;;;;;5155348;27;46403;-63
2022/01/25 02:38:26;;;;;;;45.38;16.70;;;1.60;75.90;;;;;;5160232;27;46341;-64
2022/01/25 02:40:52;;;;;;;41.88;16.75;;;1.60;75.90;;;;;;5152328;27;46121;-62
2022/01/25 02:43:20;;;;;;;33.55;15.48;;;1.60;76.10;;;;;;5148126;27;46841;-64
2022/01/25 02:45:51;;;;;;;40.78;15.23;;;1.60;76.10;;;;;;5151653;27;46351;-62
2022/01/25 02:48:30;;;;;;;42.35;15.40;;;1.60;76.30;;;;;;5154500;27;46662;-62
2022/01/25 02:51:00;;;;;;;35.90;15.38;;;1.60;76.50;;;;;;5154433;27;46378;-62
2022/01/25 02:53:26;;;;;;;47.42;16.65;;;1.60;76.40;;;;;;5152096;27;46431;-62
2022/01/25 02:55:52;;;;;;;35.05;16.27;;;1.60;76.40;;;;;;5150692;27;46401;-63
2022/01/25 02:58:17;;;;;;;54.47;17.87;;;1.60;76.40;;;;;;5150570;27;45778;-62
2022/01/25 03:00:43;;;;;;;44.93;16.90;;;1.60;76.50;;;;;;5146338;27;46209;-62
2022/01/25 03:03:09;;;;;;;51.10;15.93;;;1.60;76.40;;;;;;5150945;27;46368;-63
2022/01/25 03:05:35;;;;;;;57.40;15.70;;;1.50;76.40;;;;;;5154620;27;47103;-63
2022/01/25 03:08:01;;;;;;;60.87;15.83;;;1.40;76.80;;;;;;5153323;27;46419;-64
2022/01/25 03:10:38;;;;;;;40.58;15.60;;;1.30;77.00;;;;;;5154406;27;46314;-63
2022/01/25 03:13:07;;;;;;;47.95;17.35;;;1.20;77.30;;;;;;5150594;27;46452;-63
2022/01/25 03:18:36;;;;;;;50.25;18.20;;;1.30;77.00;;;;;;5154101;27;46523;-63
2022/01/25 03:21:49;;;;;;;67.57;17.75;;;1.40;76.70;;;;;;5152584;27;46412;-63
2022/01/25 03:23:51;;;;;;;63.40;17.38;;;1.30;76.70;;;;;;5141954;27;45911;-62
2022/01/25 03:26:17;;;;;;;49.97;17.17;;;1.20;76.90;;;;;;5147592;27;46422;-64
2022/01/25 03:28:43;;;;;;;57.95;17.60;;;1.20;77.00;;;;;;5150855;27;45958;-64
2022/01/25 03:31:09;;;;;;;54.50;17.00;;;1.20;77.00;;;;;;5152354;27;46368;-64
2022/01/25 03:33:35;;;;;;;53.83;18.80;;;1.20;77.00;;;;;;5154228;27;46543;-63
2022/01/25 03:36:02;;;;;;;62.03;18.75;;;1.30;76.80;;;;;;5154761;27;46315;-64
2022/01/25 03:38:28;;;;;;;121.05;20.38;;;1.40;76.60;;;;;;5154752;27;46205;-65
2022/01/25 03:40:54;;;;;;;41.23;18.77;;;1.30;76.40;;;;;;5150604;27;45735;-64
2022/01/25 03:43:19;;;;;;;45.37;17.43;;;1.40;76.50;;;;;;5151431;27;46443;-63
2022/01/25 03:45:58;;;;;;;47.90;16.17;;;1.40;76.40;;;;;;5157353;27;46283;-63
2022/01/25 03:50:51;;;;;;;71.27;17.80;;;1.40;76.40;;;;;;5161309;27;46372;-62
2022/01/25 03:53:19;;;;;;;93.40;18.50;;;1.40;76.40;;;;;;5157927;27;46331;-62
2022/01/25 03:55:47;;;;;;;51.50;18.10;;;1.40;76.40;;;;;;5149820;27;47228;-63
2022/01/25 03:58:13;;;;;;;49.33;16.42;;;1.30;76.50;;;;;;5153062;27;46450;-64
2022/01/25 04:00:40;;;;;;;63.80;17.02;;;1.30;76.60;;;;;;5152338;27;46358;-64
2022/01/25 04:03:28;;;;;;;53.92;16.67;;;1.30;76.50;;;;;;5151697;27;46294;-61
2022/01/25 04:05:55;;;;;;;38.90;17.20;;;1.40;76.50;;;;;;5155621;27;46434;-62
2022/01/25 04:08:21;;;;;;;43.70;16.90;;;1.40;76.30;;;;;;5160129;27;46536;-64
2022/01/25 04:10:47;;;;;;;46.90;16.70;;;1.40;76.00;;;;;;5160931;27;46424;-64
2022/01/25 04:13:13;;;;;;;44.13;15.80;;;1.40;75.90;;;;;;5157868;27;46667;-64
2022/01/25 04:15:43;;;;;;;40.80;16.20;;;1.30;76.10;;;;;;5164440;27;46282;-64
2022/01/25 04:18:34;;;;;;;44.47;16.42;;;1.30;76.10;;;;;;5150489;27;45829;-63
2022/01/25 04:26:13;;;;;;;57.00;20.02;;;1.40;76.10;;;;;;5159552;27;46476;-64
2022/01/25 04:28:38;;;;;;;35.03;15.93;;;1.40;76.30;;;;;;5155243;27;46414;-64
2022/01/25 04:31:04;;;;;;;38.17;15.20;;;1.40;76.30;;;;;;5158145;27;46475;-64
2022/01/25 04:33:39;;;;;;;41.50;15.83;;;1.40;76.30;;;;;;5160033;27;46354;-63
2022/01/25 04:49:35;;;;;;;36.38;14.60;;;1.10;76.90;;;;;;5161722;27;46542;-64
2022/01/25 04:52:06;;;;;;;35.47;13.93;;;1.00;77.00;;;;;;5155517;27;46353;-64
2022/01/25 05:02:44;;;;;;;44.57;13.50;;;1.00;76.40;;;;;;5152713;27;46561;-64
2022/01/25 05:05:14;;;;;;;34.28;15.10;;;1.00;77.70;;;;;;5155622;27;46396;-63
2022/01/25 05:10:37;;;;;;;29.05;12.63;;;1.00;76.40;;;;;;5125572;27;46563;-63
2022/01/25 05:13:24;;;;;;;41.50;13.63;;;1.10;76.30;;;;;;5151823;27;46550;-64
2022/01/25 05:16:26;;;;;;;46.70;17.98;;;1.10;76.20;;;;;;5153390;27;46461;-63
2022/01/25 05:19:01;;;;;;;35.08;15.38;;;1.00;76.10;;;;;;5157409;27;47898;-62
2022/01/25 05:24:11;;;;;;;35.60;12.90;;;1.10;76.50;;;;;;5156018;27;46360;-64
2022/01/25 05:26:37;;;;;;;55.00;14.53;;;1.00;76.40;;;;;;5149448;27;46393;-62
2022/01/25 05:29:02;;;;;;;32.03;13.57;;;1.00;76.40;;;;;;5157340;27;46248;-64
2022/01/25 05:31:28;;;;;;;36.97;14.77;;;0.90;76.30;;;;;;5157947;27;46404;-64
2022/01/25 05:33:54;;;;;;;47.93;14.97;;;1.00;76.20;;;;;;5155020;27;46335;-62
2022/01/25 05:36:19;;;;;;;50.10;14.97;;;1.10;76.10;;;;;;5157389;27;46296;-63
2022/01/25 05:38:46;;;;;;;56.07;16.83;;;1.10;76.10;;;;;;5153191;27;46325;-63
2022/01/25 05:41:13;;;;;;;76.40;16.70;;;1.00;76.20;;;;;;5152692;27;46394;-63
2022/01/25 05:46:19;;;;;;;51.10;16.02;;;1.00;76.30;;;;;;5148321;27;46357;-64
2022/01/25 05:48:47;;;;;;;50.95;15.13;;;1.10;76.10;;;;;;5155748;27;48080;-63
2022/01/25 05:51:13;;;;;;;38.92;16.33;;;1.00;76.00;;;;;;5148829;27;46024;-63
2022/01/25 05:53:42;;;;;;;42.65;14.77;;;0.90;76.00;;;;;;5156948;27;46364;-62
2022/01/25 05:56:08;;;;;;;38.92;14.48;;;1.00;76.00;;;;;;5160050;27;46270;-62
2022/01/25 05:58:34;;;;;;;32.10;14.63;;;1.00;75.80;;;;;;5152728;27;47198;-64
2022/01/25 06:01:00;;;;;;;33.87;14.63;;;0.90;75.80;;;;;;5151361;27;46456;-63
2022/01/25 06:03:25;;;;;;;26.60;14.17;;;0.90;75.80;;;;;;5151480;27;46353;-64
2022/01/25 06:05:51;;;;;;;31.90;14.60;;;0.90;75.80;;;;;;5152875;27;46408;-64
2022/01/25 06:08:17;;;;;;;49.65;15.15;;;0.90;75.60;;;;;;5150138;27;46055;-62
2022/01/25 06:10:43;;;;;;;38.27;14.90;;;0.80;75.70;;;;;;5154620;27;46427;-64
2022/01/25 06:13:08;;;;;;;33.73;16.07;;;0.80;75.90;;;;;;5156547;27;46370;-64
2022/01/25 06:15:34;;;;;;;37.93;15.07;;;0.90;75.80;;;;;;5159177;27;46365;-63
2022/01/25 06:17:59;;;;;;;36.23;16.30;;;0.90;75.80;;;;;;5158106;27;48170;-63
2022/01/25 06:20:25;;;;;;;41.90;15.80;;;0.90;75.60;;;;;;5144061;27;46403;-63
2022/01/25 06:22:51;;;;;;;33.93;15.27;;;0.90;75.60;;;;;;5147884;27;46359;-63
2022/01/25 06:25:17;;;;;;;33.37;15.23;;;0.90;75.70;;;;;;5150984;27;46323;-64
2022/01/25 06:27:43;;;;;;;42.42;16.45;;;1.00;75.40;;;;;;5154618;27;46496;-63
2022/01/25 06:30:13;;;;;;;34.33;15.88;;;1.00;75.30;;;;;;5152790;27;46443;-63
2022/01/25 06:32:39;;;;;;;29.13;15.60;;;1.10;75.40;;;;;;5153499;27;46400;-63
2022/01/25 06:35:05;;;;;;;37.60;17.60;;;1.10;75.40;;;;;;5156240;27;46424;-63
2022/01/25 06:37:31;;;;;;;39.22;17.10;;;1.10;75.50;;;;;;5160220;27;46472;-63
2022/01/25 06:39:58;;;;;;;38.40;17.95;;;1.00;75.50;;;;;;5153895;27;46381;-65
2022/01/25 06:42:31;;;;;;;38.42;15.90;;;1.00;75.50;;;;;;5156054;27;46197;-64
2022/01/25 06:45:00;;;;;;;33.35;16.02;;;1.10;75.60;;;;;;5162975;27;46385;-65
2022/01/25 06:47:26;;;;;;;42.80;18.90;;;1.10;75.60;;;;;;5156515;27;47124;-64
2022/01/25 06:49:51;;;;;;;41.17;17.17;;;1.10;75.70;;;;;;5162634;27;45819;-63
2022/01/25 06:52:17;;;;;;;31.57;15.57;;;1.10;75.50;;;;;;5163774;27;46179;-63
2022/01/25 06:54:43;;;;;;;33.40;17.70;;;1.10;75.70;;;;;;5158860;27;46342;-63
2022/01/25 06:57:08;;;;;;;34.40;17.27;;;1.10;75.70;;;;;;5157170;27;46345;-64
2022/01/25 06:59:34;;;;;;;36.70;17.53;;;1.10;75.70;;;;;;5157172;27;46428;-63
2022/01/25 07:02:00;;;;;;;31.52;16.13;;;1.10;75.70;;;;;;5154208;27;46489;-63
2022/01/25 07:04:26;;;;;;;33.97;16.90;;;1.00;75.80;;;;;;5154052;27;46373;-61
2022/01/25 07:06:52;;;;;;;37.53;18.70;;;1.10;75.80;;;;;;5154436;27;47290;-61
2022/01/25 07:09:17;;;;;;;35.03;17.90;;;1.20;75.70;;;;;;5161024;27;46326;-63
2022/01/25 07:11:43;;;;;;;35.53;18.47;;;1.20;75.60;;;;;;5150934;27;46399;-63
2022/01/25 07:14:09;;;;;;;36.73;19.00;;;1.20;75.60;;;;;;5154740;27;46420;-61
2022/01/25 07:16:34;;;;;;;39.50;18.53;;;1.30;75.40;;;;;;5157056;27;46300;-63
2022/01/25 07:19:00;;;;;;;39.03;19.03;;;1.30;75.30;;;;;;5153957;27;46422;-62
2022/01/25 07:21:26;;;;;;;34.17;18.87;;;1.40;75.30;;;;;;5156028;27;46381;-62
2022/01/25 07:23:52;;;;;;;44.42;21.65;;;1.30;75.20;;;;;;5161537;27;46601;-63
2022/01/25 07:26:17;;;;;;;39.80;19.33;;;1.30;75.40;;;;;;5159726;27;46430;-63
2022/01/25 07:28:43;;;;;;;47.40;21.40;;;1.40;75.30;;;;;;5154802;27;46456;-62
2022/01/25 07:31:09;;;;;;;45.20;24.10;;;1.30;75.30;;;;;;5150843;27;45903;-64
2022/01/25 07:33:34;;;;;;;40.87;19.83;;;1.30;75.50;;;;;;5161829;27;46367;-63
2022/01/25 07:36:00;;;;;;;36.93;18.33;;;1.40;75.50;;;;;;5156947;27;46998;-63
2022/01/25 07:38:26;;;;;;;37.28;18.60;;;1.40;75.30;;;;;;5155356;27;46372;-64
2022/01/25 07:40:52;;;;;;;37.80;19.53;;;1.50;75.10;;;;;;5155251;27;46387;-63
2022/01/25 07:43:17;;;;;;;45.67;21.90;;;1.60;75.00;;;;;;5154704;27;46514;-63
2022/01/25 07:45:50;;;;;;;45.83;19.60;;;1.60;75.00;;;;;;5152542;27;46427;-61
2022/01/25 07:48:15;;;;;;;42.28;22.20;;;1.60;75.00;;;;;;5154794;27;46376;-62
2022/01/25 07:50:41;;;;;;;45.23;23.80;;;1.50;75.20;;;;;;5160620;27;46320;-63
2022/01/25 07:53:07;;;;;;;46.23;22.73;;;1.50;75.10;;;;;;5153342;27;46573;-61
2022/01/25 07:55:32;;;;;;;37.77;18.63;;;1.50;75.00;;;;;;5152388;27;47111;-63
2022/01/25 07:57:58;;;;;;;37.47;18.60;;;1.50;74.90;;;;;;5161613;27;46370;-62
2022/01/25 08:00:24;;;;;;;36.20;17.80;;;1.50;75.00;;;;;;5161093;27;46364;-62
2022/01/25 08:02:51;;;;;;;38.27;19.23;;;1.50;75.10;;;;;;5158461;27;46337;-61
2022/01/25 08:05:19;;;;;;;39.35;19.92;;;1.60;75.10;;;;;;5152293;27;46374;-63
2022/01/25 08:07:46;;;;;;;31.20;17.17;;;1.60;75.10;;;;;;5155210;27;46429;-63
2022/01/25 08:10:12;;;;;;;28.85;16.38;;;1.60;75.00;;;;;;5152161;27;46474;-62
2022/01/25 08:12:38;;;;;;;28.17;15.90;;;1.70;74.90;;;;;;5150885;27;46498;-62
2022/01/25 08:15:06;;;;;;;29.27;16.30;;;1.60;74.80;;;;;;5154754;27;46973;-62
2022/01/25 08:17:32;;;;;;;30.20;15.55;;;1.60;74.90;;;;;;5154011;27;46360;-64
2022/01/25 08:19:58;;;;;;;28.03;17.40;;;1.60;74.80;;;;;;5155269;27;46172;-62
2022/01/25 08:22:24;;;;;;;29.33;16.92;;;1.80;75.30;;;;;;5154793;27;46411;-63
2022/01/25 08:24:56;;;;;;;34.63;18.20;;;1.70;74.90;;;;;;5152229;27;46497;-62
2022/01/25 08:27:24;;;;;;;28.50;15.70;;;1.80;75.00;;;;;;5149022;27;45966;-64
2022/01/25 08:29:51;;;;;;;26.90;13.93;;;1.70;74.90;;;;;;5153087;27;46481;-62
2022/01/25 08:32:21;;;;;;;27.15;15.80;;;1.70;74.80;;;;;;5152087;27;46419;-63
2022/01/25 08:34:47;;;;;;;26.15;14.73;;;1.80;75.00;;;;;;5152793;27;47233;-63
2022/01/25 08:37:13;;;;;;;22.25;13.55;;;1.70;74.80;;;;;;5154277;27;46468;-63
2022/01/25 08:39:39;;;;;;;22.73;13.27;;;1.80;74.80;;;;;;5153391;27;46426;-62
2022/01/25 08:42:08;;;;;;;25.00;13.90;;;1.60;74.90;;;;;;5162152;27;46452;-62
2022/01/25 08:44:34;;;;;;;22.92;13.70;;;1.60;75.10;;;;;;5147476;27;47290;-62
2022/01/25 08:47:03;;;;;;;23.38;14.13;;;1.60;75.10;;;;;;5157854;27;46491;-63
2022/01/25 08:49:30;;;;;;;22.33;13.52;;;1.70;74.90;;;;;;5155696;27;46449;-62
2022/01/25 08:51:57;;;;;;;26.88;14.85;;;1.60;74.90;;;;;;5156343;27;46698;-63
2022/01/25 08:54:23;;;;;;;29.55;16.17;;;1.70;75.20;;;;;;5155107;27;47119;-62
2022/01/25 08:56:48;;;;;;;28.80;15.43;;;1.80;75.20;;;;;;5154330;27;46426;-64
2022/01/25 08:59:14;;;;;;;29.47;18.30;;;1.80;75.10;;;;;;5154315;27;46362;-63
2022/01/25 09:01:40;;;;;;;26.57;15.60;;;1.80;75.00;;;;;;5156838;27;46340;-63
2022/01/25 09:04:05;;;;;;;23.80;14.50;;;2.10;74.90;;;;;;5154552;27;47403;-63
2022/01/25 09:06:31;;;;;;;24.13;14.80;;;2.10;74.50;;;;;;5151515;27;46420;-63
2022/01/25 09:09:04;;;;;;;27.45;15.88;;;2.10;74.70;;;;;;5147071;27;46316;-63
2022/01/25 09:11:30;;;;;;;23.15;15.38;;;1.90;75.00;;;;;;5158258;27;46623;-63
2022/01/25 09:13:56;;;;;;;23.88;13.68;;;1.80;75.30;;;;;;5154616;27;46425;-63
2022/01/25 09:16:28;;;;;;;22.38;13.27;;;1.70;75.70;;;;;;5152041;27;46519;-63
2022/01/25 09:18:53;;;;;;;22.13;13.20;;;1.60;75.90;;;;;;5150706;27;46399;-64
2022/01/25 09:21:19;;;;;;;24.73;14.87;;;1.50;76.10;;;;;;5156907;27;46359;-65
2022/01/25 09:23:44;;;;;;;26.60;14.33;;;1.50;75.90;;;;;;5152298;27;46898;-64
2022/01/25 09:26:10;;;;;;;23.50;13.70;;;1.50;76.10;;;;;;5155332;27;46286;-65
2022/01/25 09:28:36;;;;;;;23.77;13.37;;;1.60;75.80;;;;;;5156240;27;46453;-63
2022/01/25 09:31:03;;;;;;;23.00;13.43;;;1.60;75.50;;;;;;5152482;27;45855;-61
2022/01/25 09:33:31;;;;;;;22.35;13.65;;;1.70;75.30;;;;;;5146360;27;46630;-62
2022/01/25 09:35:57;;;;;;;25.50;13.80;;;1.80;75.00;;;;;;5159611;27;46367;-61
2022/01/25 09:38:25;;;;;;;22.27;12.80;;;1.90;75.00;;;;;;5153947;27;46217;-64
2022/01/25 09:40:52;;;;;;;23.98;13.57;;;2.00;74.80;;;;;;5150658;27;45858;-63
2022/01/25 09:43:20;;;;;;;24.20;13.27;;;2.10;74.80;;;;;;5152133;27;47229;-62
2022/01/25 09:45:46;;;;;;;24.25;14.25;;;2.10;74.80;;;;;;5154097;27;46419;-63
2022/01/25 09:48:17;;;;;;;23.95;14.35;;;2.10;74.90;;;;;;5150639;27;46354;-62
2022/01/25 09:50:45;;;;;;;26.27;13.73;;;2.00;75.00;;;;;;5158292;27;46415;-63
2022/01/25 09:53:13;;;;;;;23.80;13.60;;;2.00;75.20;;;;;;5154968;27;46269;-64
2022/01/25 09:55:43;;;;;;;22.10;13.70;;;2.30;74.90;;;;;;5152140;27;46402;-62
2022/01/25 09:58:12;;;;;;;24.05;14.18;;;2.30;74.70;;;;;;5146910;27;46504;-63
2022/01/25 10:00:39;;;;;;;22.77;13.70;;;2.30;74.30;;;;;;5161128;27;46256;-63
2022/01/25 10:03:32;;;;;;;22.20;13.40;;;2.30;74.20;;;;;;5154473;27;46329;-64
2022/01/25 10:06:01;;;;;;;23.67;13.10;;;2.40;74.20;;;;;;5152973;27;46220;-63
2022/01/25 10:08:32;;;;;;;25.02;14.57;;;2.50;74.30;;;;;;5151876;27;46427;-63
2022/01/25 10:11:08;;;;;;;21.67;12.85;;;2.50;74.40;;;;;;5153528;27;46386;-64
2022/01/25 10:13:36;;;;;;;25.75;13.65;;;2.50;74.20;;;;;;5152784;27;47059;-63
2022/01/25 10:16:08;;;;;;;23.10;13.27;;;2.60;74.30;;;;;;5152862;27;46312;-62
2022/01/25 10:18:53;;;;;;;24.45;14.55;;;2.60;74.10;;;;;;5155999;27;46333;-62
2022/01/25 10:21:20;;;;;;;22.42;12.88;;;2.70;74.10;;;;;;5153756;27;45868;-61
2022/01/25 10:24:05;;;;;;;19.33;11.52;;;2.70;74.20;;;;;;5155375;27;46929;-62
2022/01/25 10:26:34;;;;;;;20.73;12.02;;;2.80;74.00;;;;;;5159932;27;46333;-64
2022/01/25 10:29:01;;;;;;;21.60;12.27;;;2.90;74.10;;;;;;5151110;27;46474;-64
2022/01/25 10:31:56;;;;;;;24.27;13.70;;;2.90;73.90;;;;;;5153637;27;46307;-62
2022/01/25 10:34:39;;;;;;;23.17;11.30;;;3.00;73.60;;;;;;5154275;27;47245;-63
2022/01/25 10:37:11;;;;;;;21.08;12.35;;;3.10;73.70;;;;;;5155751;27;46545;-63
2022/01/25 10:39:41;;;;;;;24.13;11.98;;;3.10;73.50;;;;;;5155777;27;46422;-62
2022/01/25 10:42:11;;;;;;;21.52;12.57;;;3.10;73.60;;;;;;5157987;27;46239;-63
2022/01/25 10:45:00;;;;;;;20.98;11.77;;;3.20;73.70;;;;;;5164106;27;46337;-62
2022/01/25 10:47:46;;;;;;;22.40;12.20;;;3.10;73.60;;;;;;5160040;27;46298;-62
2022/01/25 10:50:11;;;;;;;21.30;11.52;;;3.20;73.50;;;;;;5150709;27;46507;-64
2022/01/25 10:52:44;;;;;;;21.63;12.83;;;3.30;73.50;;;;;;5150717;27;46307;-63
2022/01/25 10:55:11;;;;;;;25.40;13.23;;;3.40;73.50;;;;;;5153490;27;46397;-63
2022/01/25 10:57:37;;;;;;;20.10;11.85;;;3.50;73.20;;;;;;5155531;27;46293;-63
2022/01/25 11:00:12;;;;;;;22.77;12.75;;;3.50;73.00;;;;;;5157572;27;46425;-62
2022/01/25 11:02:49;;;;;;;19.63;11.18;;;3.50;72.90;;;;;;5156171;27;46372;-64
2022/01/25 11:05:15;;;;;;;19.27;10.63;;;3.70;72.70;;;;;;5160465;27;46324;-63
2022/01/25 11:07:44;;;;;;;22.50;11.60;;;3.70;72.50;;;;;;5160205;27;46343;-63
2022/01/25 11:10:21;;;;;;;22.55;11.95;;;3.70;72.50;;;;;;5152424;27;46433;-63
2022/01/25 11:13:01;;;;;;;21.43;11.63;;;3.70;72.60;;;;;;5152718;27;46360;-63
2022/01/25 11:15:27;;;;;;;20.33;12.10;;;3.80;72.60;;;;;;5156501;27;47173;-64
2022/01/25 11:17:52;;;;;;;20.80;11.00;;;3.80;72.60;;;;;;5154911;27;46466;-63
2022/01/25 11:20:20;;;;;;;22.23;11.97;;;3.90;72.70;;;;;;5150737;27;46472;-63
2022/01/25 11:22:47;;;;;;;23.02;12.85;;;4.00;72.80;;;;;;5153570;27;46457;-63
2022/01/25 11:25:17;;;;;;;23.20;12.00;;;4.10;74.10;;;;;;5155855;27;46369;-63
2022/01/25 11:27:44;;;;;;;19.95;11.20;;;4.10;72.90;;;;;;5158679;27;45809;-63
2022/01/25 11:30:14;;;;;;;22.45;11.98;;;4.10;74.00;;;;;;5155391;27;46296;-63
2022/01/25 11:32:43;;;;;;;20.43;11.63;;;4.00;72.80;;;;;;5155778;27;46515;-63
2022/01/25 11:35:12;;;;;;;22.55;11.38;;;4.10;72.90;;;;;;5152909;27;46413;-63
2022/01/25 11:37:44;;;;;;;20.17;11.30;;;4.10;72.90;;;;;;5153523;27;46393;-64
2022/01/25 11:40:26;;;;;;;19.73;11.50;;;4.10;72.90;;;;;;5160588;27;46284;-63
2022/01/25 11:42:57;;;;;;;24.70;12.30;;;4.20;72.40;;;;;;5152511;27;46349;-63
2022/01/25 11:45:37;;;;;;;22.10;11.03;;;4.20;71.90;;;;;;5150628;27;46852;-63
2022/01/25 11:48:06;;;;;;;23.88;12.90;;;4.10;72.10;;;;;;5151815;27;46405;-63
2022/01/25 11:50:43;;;;;;;21.50;11.77;;;4.10;71.70;;;;;;5157441;27;46376;-61
2022/01/25 11:53:12;;;;;;;21.53;11.57;;;4.10;71.90;;;;;;5160170;27;46394;-64
2022/01/25 11:55:47;;;;;;;24.92;12.13;;;4.10;71.10;;;;;;5158800;27;46356;-64
2022/01/25 11:58:16;;;;;;;25.25;11.23;;;4.20;71.50;;;;;;5155960;27;46420;-61
2022/01/25 12:00:46;;;;;;;22.15;11.73;;;4.20;70.80;;;;;;5150724;27;46365;-62
2022/01/25 12:03:32;;;;;;;24.57;11.40;;;4.10;70.90;;;;;;5154259;27;46380;-63
2022/01/25 12:06:24;;;;;;;30.00;11.70;;;3.90;69.70;;;;;;5156040;27;47176;-62
2022/01/25 12:11:48;;;;;;;24.08;12.50;;;3.60;70.20;;;;;;5152945;27;46236;-61
2022/01/25 12:14:18;;;;;;;21.87;11.80;;;3.50;70.10;;;;;;5155123;27;46421;-68
2022/01/25 12:17:04;;;;;;;26.48;12.15;;;3.50;70.20;;;;;;5149319;27;46615;-64
2022/01/25 12:19:51;;;;;;;25.50;13.35;;;3.60;70.20;;;;;;5148581;27;45864;-63
2022/01/25 12:25:22;;;;;;;25.20;14.07;;;3.70;70.20;;;;;;5149402;27;46392;-62
2022/01/25 12:27:55;;;;;;;25.15;12.40;;;3.70;70.30;;;;;;5160086;27;46393;-63
2022/01/25 12:30:45;;;;;;;27.25;13.40;;;3.80;70.10;;;;;;5151587;27;46333;-61
2022/01/25 12:33:19;;;;;;;28.00;14.73;;;3.80;70.20;;;;;;5151510;27;46366;-63
2022/01/25 12:36:02;;;;;;;30.33;14.50;;;3.90;70.30;;;;;;5153334;27;46396;-63
2022/01/25 12:38:49;;;;;;;28.10;14.68;;;4.00;70.20;;;;;;5155190;27;46371;-64
2022/01/25 12:41:23;;;;;;;28.10;14.25;;;4.00;70.00;;;;;;5150547;27;45904;-63
2022/01/25 12:43:54;;;;;;;31.30;14.43;;;4.00;70.00;;;;;;5154795;27;46421;-62
2022/01/25 12:46:25;;;;;;;31.10;14.75;;;4.10;70.10;;;;;;5159290;27;46340;-62
2022/01/25 12:49:10;;;;;;;29.52;14.90;;;4.00;70.00;;;;;;5156855;27;46436;-63
2022/01/25 12:51:38;;;;;;;30.33;13.70;;;4.00;69.90;;;;;;5149311;27;46220;-62
2022/01/25 12:54:07;;;;;;;30.20;14.88;;;3.90;70.10;;;;;;5148838;27;46355;-62
2022/01/25 12:56:42;;;;;;;35.33;15.90;;;3.90;70.20;;;;;;5153559;27;46676;-62
2022/01/25 12:59:11;;;;;;;29.10;13.82;;;3.90;70.10;;;;;;5154951;27;46412;-62
2022/01/25 13:01:39;;;;;;;34.75;15.60;;;3.90;70.00;;;;;;5155019;27;46373;-64
2022/01/25 13:04:07;;;;;;;28.10;15.95;;;3.90;70.20;;;;;;5153135;27;46299;-64
2022/01/25 13:06:36;;;;;;;34.00;15.60;;;4.00;70.30;;;;;;5158171;27;46468;-64
2022/01/25 13:09:15;;;;;;;31.10;15.00;;;4.00;70.00;;;;;;5152133;27;46238;-61
2022/01/25 13:16:43;;;;;;;32.23;16.03;;;4.00;70.20;;;;;;5155485;27;46510;-64
2022/01/25 13:19:09;;;;;;;33.77;15.83;;;3.80;70.20;;;;;;5157747;27;46345;-63
2022/01/25 13:21:44;;;;;;;34.70;15.73;;;3.80;70.30;;;;;;5156152;27;46420;-64
2022/01/25 13:24:13;;;;;;;29.67;14.07;;;3.90;70.40;;;;;;5160770;27;46557;-63
2022/01/25 13:27:13;;;;;;;33.93;15.30;;;3.90;70.30;;;;;;5159359;27;46396;-65
2022/01/25 13:32:54;;;;;;;33.28;14.38;;;3.90;70.20;;;;;;5123377;27;46538;-62
2022/01/25 13:35:31;;;;;;;30.63;15.07;;;3.90;70.10;;;;;;5148094;27;46344;-61
2022/01/25 13:38:22;;;;;;;32.40;14.50;;;3.80;70.30;;;;;;5149849;27;46563;-62
2022/01/25 13:46:29;;;;;;;31.17;15.38;;;3.50;70.50;;;;;;5149842;27;46365;-62
2022/01/25 13:48:58;;;;;;;35.25;17.02;;;3.50;70.50;;;;;;5154756;27;46505;-63
2022/01/25 13:51:27;;;;;;;29.33;16.05;;;3.50;70.50;;;;;;5150368;27;47044;-63
2022/01/25 13:53:57;;;;;;;36.95;18.17;;;3.50;70.40;;;;;;5151990;27;46404;-62
2022/01/25 13:56:29;;;;;;;34.97;17.35;;;3.50;70.50;;;;;;5155014;27;46316;-61
2022/01/25 13:58:55;;;;;;;34.57;16.27;;;3.40;70.50;;;;;;5154474;27;46530;-64
2022/01/25 14:01:24;;;;;;;38.45;18.02;;;3.50;70.80;;;;;;5151645;27;46350;-62
2022/01/25 14:03:59;;;;;;;36.53;17.30;;;3.30;70.90;;;;;;5149256;27;46401;-62
2022/01/25 14:06:31;;;;;;;34.38;15.93;;;3.30;70.90;;;;;;5159213;27;46346;-63
2022/01/25 14:09:05;;;;;;;40.57;18.17;;;3.30;71.10;;;;;;5154054;27;46429;-63
2022/01/25 14:25:44;;;;;;;34.50;16.10;;;3.00;71.90;;;;;;5154338;27;45836;-64
2022/01/25 14:28:13;;;;;;;39.15;18.52;;;3.00;71.90;;;;;;5149803;27;46268;-64
2022/01/25 14:30:42;;;;;;;38.85;18.17;;;2.90;71.80;;;;;;5157025;27;46236;-63
2022/01/25 14:33:14;;;;;;;42.88;17.77;;;2.90;71.80;;;;;;5154887;27;46288;-63
2022/01/25 14:35:49;;;;;;;40.85;17.25;;;2.80;71.70;;;;;;5148559;27;46437;-64
2022/01/25 14:38:23;;;;;;;43.28;19.55;;;2.70;71.70;;;;;;5152281;27;46377;-63
2022/01/25 14:41:12;;;;;;;41.60;16.38;;;2.70;71.70;;;;;;5153134;27;46304;-62
2022/01/25 14:43:58;;;;;;;40.08;19.02;;;2.60;71.60;;;;;;5155722;27;46429;-63
2022/01/25 14:46:30;;;;;;;48.40;19.33;;;2.60;72.00;;;;;;5148903;27;46520;-62
2022/01/25 14:49:07;;;;;;;45.75;17.80;;;2.70;71.80;;;;;;5152837;27;46300;-63
2022/01/25 14:51:38;;;;;;;46.42;20.42;;;2.70;71.70;;;;;;5151816;27;46399;-64
2022/01/25 14:54:06;;;;;;;47.67;19.52;;;2.80;71.70;;;;;;5147266;27;46943;-62
2022/01/25 14:56:34;;;;;;;45.20;20.20;;;2.80;71.80;;;;;;5150597;27;46356;-63
2022/01/25 14:59:24;;;;;;;46.90;20.70;;;2.90;71.80;;;;;;5151731;27;46469;-63
2022/01/25 15:01:53;;;;;;;48.45;22.38;;;2.80;71.70;;;;;;5154982;27;46353;-63
2022/01/25 15:04:19;;;;;;;46.88;21.02;;;2.80;71.80;;;;;;5154542;27;46410;-64
2022/01/25 15:06:44;;;;;;;51.57;22.53;;;2.80;71.80;;;;;;5157707;27;46364;-63
2022/01/25 15:09:10;;;;;;;49.83;21.27;;;2.80;71.70;;;;;;5155975;27;46559;-63
2022/01/25 15:11:36;;;;;;;53.35;22.30;;;2.80;71.70;;;;;;5154792;27;46369;-63